createdAt,value
2017-11-24T00:02:06.641Z,100704.98
2017-11-24T00:04:35.068Z,100709.88
2017-11-24T00:07:01.340Z,100697.09
2017-11-24T00:09:28.744Z,100689.56
2017-11-24T00:11:54.977Z,100685.14
2017-11-24T00:14:21.417Z,100683.60
2017-11-24T00:16:47.744Z,100680.70
2017-11-24T00:19:13.971Z,100692.57
2017-11-24T00:21:40.411Z,100688.11
2017-11-24T00:24:06.653Z,100710.01
2017-11-24T00:26:33.130Z,100724.50
2017-11-24T00:28:59.307Z,100723.19
2017-11-24T00:31:25.587Z,100725.81
2017-11-24T00:33:52.056Z,100726.70
2017-11-24T00:36:18.319Z,100723.23
2017-11-24T00:38:44.582Z,100732.43
2017-11-24T00:41:10.798Z,100723.23
2017-11-24T00:43:36.982Z,100732.91
2017-11-24T00:46:03.242Z,100742.59
2017-11-24T00:48:29.460Z,100747.41
2017-11-24T00:50:55.696Z,100726.47
2017-11-24T00:53:21.982Z,100731.77
2017-11-24T00:55:48.176Z,100734.87
2017-11-24T00:58:14.463Z,100747.53
2017-11-24T01:00:40.939Z,100734.39
2017-11-24T01:03:07.118Z,100729.09
2017-11-24T01:05:33.321Z,100716.39
2017-11-24T01:07:59.574Z,100709.03
2017-11-24T01:10:25.843Z,100723.88
2017-11-24T01:12:52.008Z,100714.68
2017-11-24T01:15:18.311Z,100723.00
2017-11-24T01:17:44.522Z,100714.24
2017-11-24T01:20:10.844Z,100712.45
2017-11-24T01:22:37.093Z,100704.13
2017-11-24T01:25:03.270Z,100719.94
2017-11-24T01:27:29.586Z,100702.50
2017-11-24T01:29:55.777Z,100670.09
2017-11-24T01:32:22.215Z,100678.41
2017-11-24T01:34:48.464Z,100672.59
2017-11-24T01:37:14.653Z,100673.12
2017-11-24T01:39:40.886Z,100691.55
2017-11-24T01:42:07.511Z,100695.14
2017-11-24T01:44:33.741Z,100704.81
2017-11-24T01:46:59.944Z,100714.48
2017-11-24T01:49:26.236Z,100720.10
2017-11-24T01:51:52.407Z,100718.86
2017-11-24T01:54:18.588Z,100714.09
2017-11-24T01:56:44.932Z,100710.14
2017-11-24T01:59:11.130Z,100715.00
2017-11-24T02:01:37.342Z,100716.36
2017-11-24T02:04:03.583Z,100724.20
2017-11-24T02:06:29.765Z,100721.25
2017-11-24T02:08:55.960Z,100715.88
2017-11-24T02:11:22.194Z,100702.30
2017-11-24T02:13:48.369Z,100714.09
2017-11-24T02:16:14.811Z,100712.81
2017-11-24T02:18:41.142Z,100712.94
2017-11-24T02:21:07.310Z,100706.84
2017-11-24T02:23:33.730Z,100709.00
2017-11-24T02:25:59.965Z,100711.27
2017-11-24T02:28:26.191Z,100714.61
2017-11-24T02:30:52.374Z,100700.00
2017-11-24T02:33:18.619Z,100694.91
2017-11-24T02:35:44.847Z,100683.67
2017-11-24T02:38:11.063Z,100670.19
2017-11-24T02:40:37.319Z,100667.05
2017-11-24T02:43:03.529Z,100670.90
2017-11-24T02:45:29.965Z,100669.90
2017-11-24T02:47:56.292Z,100669.90
2017-11-24T02:50:22.768Z,100676.11
2017-11-24T02:52:49.221Z,100666.00
2017-11-24T02:55:15.550Z,100671.21
2017-11-24T02:57:41.759Z,100669.50
2017-11-24T03:00:08.026Z,100669.94
2017-11-24T03:02:34.498Z,100681.28
2017-11-24T03:05:00.690Z,100684.39
2017-11-24T03:07:26.910Z,100673.45
2017-11-24T03:09:53.186Z,100666.36
2017-11-24T03:12:19.373Z,100676.78
2017-11-24T03:14:45.563Z,100679.77
2017-11-24T03:17:11.896Z,100667.55
2017-11-24T03:19:38.092Z,100671.09
2017-11-24T03:22:04.298Z,100671.17
2017-11-24T03:24:30.799Z,100668.11
2017-11-24T03:26:56.989Z,100672.05
2017-11-24T03:29:23.178Z,100669.34
2017-11-24T03:31:49.428Z,100673.64
2017-11-24T03:34:15.611Z,100675.82
2017-11-24T03:36:42.028Z,100671.48
2017-11-24T03:39:08.272Z,100672.77
2017-11-24T03:41:34.479Z,100654.17
2017-11-24T03:44:00.672Z,100648.92
2017-11-24T03:46:27.092Z,100640.64
2017-11-24T03:48:53.282Z,100650.63
2017-11-24T03:51:19.594Z,100667.75
2017-11-24T03:53:45.846Z,100675.59
2017-11-24T03:56:12.028Z,100667.31
2017-11-24T03:58:38.225Z,100673.52
2017-11-24T04:01:04.457Z,100680.37
2017-11-24T04:03:30.659Z,100677.78
2017-11-24T04:05:57.229Z,100691.32
2017-11-24T04:08:23.420Z,100687.50
2017-11-24T04:10:49.646Z,100682.33
2017-11-24T04:13:15.961Z,100689.60
2017-11-24T04:15:42.400Z,100692.98
2017-11-24T04:18:08.646Z,100700.08
2017-11-24T04:20:34.981Z,100691.32
2017-11-24T04:23:01.443Z,100698.37
2017-11-24T04:25:27.667Z,100700.39
2017-11-24T04:27:53.919Z,100706.52
2017-11-24T04:30:20.162Z,100723.69
2017-11-24T04:32:46.348Z,100729.85
2017-11-24T04:35:12.572Z,100736.86
2017-11-24T04:37:38.803Z,100743.39
2017-11-24T04:40:04.991Z,100738.21
2017-11-24T04:42:31.303Z,100732.16
2017-11-24T04:44:57.529Z,100730.84
2017-11-24T04:47:23.696Z,100723.77
2017-11-24T04:49:50.008Z,100720.22
2017-11-24T04:52:16.261Z,100715.40
2017-11-24T04:54:42.528Z,100701.70
2017-11-24T04:57:08.768Z,100688.48
2017-11-24T04:59:34.943Z,100683.23
2017-11-24T05:02:01.139Z,100682.39
2017-11-24T05:04:27.383Z,100681.08
2017-11-24T05:06:53.642Z,100674.47
2017-11-24T05:09:19.851Z,100666.98
2017-11-24T05:11:46.102Z,100652.84
2017-11-24T05:14:12.276Z,100650.69
2017-11-24T05:16:38.477Z,100670.80
2017-11-24T05:19:04.738Z,100670.84
2017-11-24T05:21:30.990Z,100658.09
2017-11-24T05:23:57.412Z,100661.95
2017-11-24T05:26:23.742Z,100654.98
2017-11-24T05:28:49.932Z,100651.53
2017-11-24T05:31:16.112Z,100657.66
2017-11-24T05:33:42.361Z,100658.58
2017-11-24T05:36:08.543Z,100663.39
2017-11-24T05:38:34.974Z,100657.87
2017-11-24T05:41:01.219Z,100661.77
2017-11-24T05:43:27.413Z,100662.64
2017-11-24T05:45:57.338Z,100648.51
2017-11-24T05:48:37.308Z,100639.31
2017-11-24T05:51:05.513Z,100652.09
2017-11-24T05:53:35.709Z,100649.55
2017-11-24T05:56:04.151Z,100657.87
2017-11-24T05:58:32.025Z,100664.05
2017-11-24T06:00:59.387Z,100670.17
2017-11-24T06:03:27.039Z,100670.61
2017-11-24T06:05:54.966Z,100659.31
2017-11-24T06:08:22.557Z,100655.84
2017-11-24T06:10:50.309Z,100648.84
2017-11-24T06:13:16.650Z,100639.16
2017-11-24T06:15:49.126Z,100634.39
2017-11-24T06:18:15.331Z,100630.53
2017-11-24T06:20:41.642Z,100622.70
2017-11-24T06:23:07.830Z,100633.16
2017-11-24T06:25:34.028Z,100641.08
2017-11-24T06:28:00.267Z,100636.30
2017-11-24T06:30:26.688Z,100639.33
2017-11-24T06:32:52.866Z,100640.25
2017-11-24T06:35:19.193Z,100634.43
2017-11-24T06:37:45.382Z,100620.16
2017-11-24T06:40:11.599Z,100637.77
2017-11-24T06:42:37.866Z,100645.53
2017-11-24T06:45:04.051Z,100645.88
2017-11-24T06:47:30.491Z,100648.95
2017-11-24T06:49:56.746Z,100648.47
2017-11-24T06:52:22.939Z,100656.04
2017-11-24T06:54:49.273Z,100654.77
2017-11-24T06:57:15.633Z,100657.39
2017-11-24T06:59:41.817Z,100672.72
2017-11-24T07:02:08.030Z,100679.69
2017-11-24T07:04:34.346Z,100673.55
2017-11-24T07:07:00.550Z,100684.91
2017-11-24T07:09:26.759Z,100689.00
2017-11-24T07:11:53.111Z,100691.27
2017-11-24T07:14:19.554Z,100681.72
2017-11-24T07:16:45.853Z,100679.58
2017-11-24T07:19:12.083Z,100674.75
2017-11-24T07:21:38.312Z,100675.98
2017-11-24T07:24:04.498Z,100673.28
2017-11-24T07:26:30.843Z,100666.06
2017-11-24T07:28:57.272Z,100670.80
2017-11-24T07:31:23.462Z,100674.91
2017-11-24T07:33:49.793Z,100668.39
2017-11-24T07:36:15.985Z,100668.86
2017-11-24T07:38:42.223Z,100663.16
2017-11-24T07:41:08.758Z,100660.98
2017-11-24T07:43:35.022Z,100662.73
2017-11-24T07:46:01.206Z,100656.55
2017-11-24T07:48:27.538Z,100644.73
2017-11-24T07:50:53.721Z,100648.59
2017-11-24T07:53:19.913Z,100659.98
2017-11-24T07:55:46.511Z,100665.75
2017-11-24T07:58:12.735Z,100678.89
2017-11-24T08:00:38.921Z,100672.77
2017-11-24T08:03:05.259Z,100669.22
2017-11-24T08:05:31.687Z,100672.28
2017-11-24T08:07:57.910Z,100667.46
2017-11-24T08:10:24.402Z,100666.98
2017-11-24T08:12:50.589Z,100663.05
2017-11-24T08:15:16.776Z,100666.06
2017-11-24T08:17:43.004Z,100663.91
2017-11-24T08:20:10.313Z,100673.55
2017-11-24T08:22:36.615Z,100673.52
2017-11-24T08:25:02.867Z,100679.16
2017-11-24T08:27:29.130Z,100692.34
2017-11-24T08:29:55.346Z,100679.69
2017-11-24T08:32:21.546Z,100683.15
2017-11-24T08:34:47.894Z,100684.46
2017-11-24T08:37:14.085Z,100677.85
2017-11-24T08:39:40.534Z,100689.24
2017-11-24T08:42:06.866Z,100690.98
2017-11-24T08:44:33.063Z,100693.09
2017-11-24T08:50:02.415Z,100712.41
2017-11-24T08:52:28.759Z,100705.48
2017-11-24T08:54:54.958Z,100705.08
2017-11-24T08:57:21.200Z,100698.44
2017-11-24T08:59:47.750Z,100699.27
2017-11-24T09:02:14.262Z,100694.00
2017-11-24T09:04:40.499Z,100684.33
2017-11-24T09:07:06.747Z,100675.97
2017-11-24T09:09:32.962Z,100669.92
2017-11-24T09:11:59.211Z,100689.20
2017-11-24T09:14:25.556Z,100692.30
2017-11-24T09:16:51.758Z,100678.73
2017-11-24T09:19:18.214Z,100673.95
2017-11-24T09:21:44.464Z,100688.80
2017-11-24T09:24:10.666Z,100698.48
2017-11-24T09:26:36.868Z,100689.84
2017-11-24T09:29:03.232Z,100688.44
2017-11-24T09:31:29.422Z,100676.58
2017-11-24T09:33:55.625Z,100686.61
2017-11-24T09:36:21.974Z,100693.98
2017-11-24T09:38:48.198Z,100693.58
2017-11-24T09:41:14.411Z,100697.05
2017-11-24T09:43:40.988Z,100708.90
2017-11-24T09:46:07.196Z,100705.45
2017-11-24T09:48:33.691Z,100713.37
2017-11-24T09:50:59.949Z,100715.52
2017-11-24T09:53:26.176Z,100713.69
2017-11-24T09:55:52.669Z,100711.52
2017-11-24T09:58:19.396Z,100711.92
2017-11-24T10:00:45.766Z,100725.94
2017-11-24T10:03:11.977Z,100723.27
2017-11-24T10:05:38.267Z,100715.03
2017-11-24T10:08:04.521Z,100714.60
2017-11-24T10:10:30.754Z,100708.06
2017-11-24T10:12:57.320Z,100710.22
2017-11-24T10:15:23.504Z,100704.13
2017-11-24T10:17:49.695Z,100715.08
2017-11-24T10:20:15.961Z,100715.44
2017-11-24T10:22:42.426Z,100721.13
2017-11-24T10:25:08.655Z,100725.50
2017-11-24T10:27:34.928Z,100722.84
2017-11-24T10:30:01.130Z,100727.65
2017-11-24T10:32:27.324Z,100726.73
2017-11-24T10:34:53.650Z,100727.21
2017-11-24T10:37:19.853Z,100730.23
2017-11-24T10:39:46.076Z,100737.29
2017-11-24T10:42:12.562Z,100748.20
2017-11-24T10:44:39.012Z,100755.20
2017-11-24T10:47:05.220Z,100756.60
2017-11-24T10:49:31.539Z,100759.67
2017-11-24T10:51:57.737Z,100755.81
2017-11-24T10:54:23.972Z,100761.59
2017-11-24T10:56:50.324Z,100768.04
2017-11-24T10:59:16.547Z,100765.41
2017-11-24T11:01:42.847Z,100768.43
2017-11-24T11:04:09.184Z,100772.45
2017-11-24T11:06:35.366Z,100777.23
2017-11-24T11:09:01.569Z,100775.00
2017-11-24T11:11:27.842Z,100779.39
2017-11-24T11:13:54.037Z,100774.64
2017-11-24T11:19:02.596Z,100778.23
2017-11-24T11:21:29.052Z,100780.89
2017-11-24T11:23:55.260Z,100790.05
2017-11-24T11:26:21.622Z,100790.45
2017-11-24T11:28:48.093Z,100794.39
2017-11-24T11:31:14.549Z,100785.64
2017-11-24T11:33:40.803Z,100791.77
2017-11-24T11:36:06.999Z,100786.47
2017-11-24T11:38:33.203Z,100796.98
2017-11-24T11:40:59.463Z,100790.06
2017-11-24T11:43:25.670Z,100808.97
2017-11-24T11:45:51.913Z,100798.93
2017-11-24T11:48:18.482Z,100806.81
2017-11-24T11:50:44.712Z,100808.56
2017-11-24T11:53:11.145Z,100813.94
2017-11-24T11:55:37.486Z,100811.78
2017-11-24T11:58:03.707Z,100810.91
2017-11-24T12:00:29.889Z,100799.56
2017-11-24T12:02:56.226Z,100799.96
2017-11-24T12:05:22.558Z,100811.31
2017-11-24T12:07:48.760Z,100803.70
2017-11-24T12:10:15.046Z,100796.22
2017-11-24T12:12:41.269Z,100805.83
2017-11-24T12:15:07.722Z,100798.89
2017-11-24T12:17:34.226Z,100810.28
2017-11-24T12:20:00.666Z,100804.11
2017-11-24T12:22:26.886Z,100805.90
2017-11-24T12:24:53.368Z,100801.12
2017-11-24T12:27:19.813Z,100802.87
2017-11-24T12:29:46.278Z,100794.27
2017-11-24T12:32:12.764Z,100805.54
2017-11-24T12:34:39.054Z,100794.95
2017-11-24T12:37:05.247Z,100794.11
2017-11-24T12:39:31.602Z,100801.05
2017-11-24T12:41:57.802Z,100802.40
2017-11-24T12:44:24.283Z,100807.14
2017-11-24T12:46:50.557Z,100814.14
2017-11-24T12:49:16.748Z,100813.34
2017-11-24T12:51:42.939Z,100818.52
2017-11-24T12:54:09.410Z,100822.50
2017-11-24T12:56:35.652Z,100818.09
2017-11-24T12:59:02.172Z,100821.55
2017-11-24T13:01:28.522Z,100811.88
2017-11-24T13:03:54.974Z,100816.70
2017-11-24T13:06:21.191Z,100810.44
2017-11-24T13:08:47.455Z,100804.27
2017-11-24T13:11:13.653Z,100800.41
2017-11-24T13:13:39.831Z,100806.58
2017-11-24T13:16:06.172Z,100799.17
2017-11-24T13:18:32.590Z,100806.70
2017-11-24T13:20:58.795Z,100808.77
2017-11-24T13:23:25.046Z,100813.03
2017-11-24T13:25:51.272Z,100816.17
2017-11-24T13:28:17.699Z,100825.70
2017-11-24T13:30:44.155Z,100838.28
2017-11-24T13:33:10.350Z,100842.66
2017-11-24T13:35:36.805Z,100851.55
2017-11-24T13:38:03.065Z,100849.83
2017-11-24T13:40:29.255Z,100851.50
2017-11-24T13:42:55.685Z,100854.61
2017-11-24T13:45:21.948Z,100861.98
2017-11-24T13:47:48.146Z,100858.08
2017-11-24T13:50:14.333Z,100867.67
2017-11-24T13:52:40.759Z,100868.98
2017-11-24T13:55:07.054Z,100881.25
2017-11-24T13:57:33.470Z,100879.87
2017-11-24T13:59:59.722Z,100882.09
2017-11-24T14:02:25.916Z,100895.27
2017-11-24T14:04:52.109Z,100894.47
2017-11-24T14:07:18.428Z,100900.17
2017-11-24T14:09:44.610Z,100901.95
2017-11-24T14:12:11.040Z,100917.77
2017-11-24T14:14:37.265Z,100920.42
2017-11-24T14:17:03.462Z,100916.97
2017-11-24T14:19:29.649Z,100917.80
2017-11-24T14:21:55.882Z,100915.64
2017-11-24T14:24:22.056Z,100916.13
2017-11-24T14:26:48.250Z,100918.27
2017-11-24T14:29:14.506Z,100922.26
2017-11-24T14:31:40.945Z,100922.63
2017-11-24T14:34:07.151Z,100920.03
2017-11-24T14:36:33.383Z,100922.22
2017-11-24T14:38:59.885Z,100924.88
2017-11-24T14:41:26.065Z,100929.67
2017-11-24T14:43:52.602Z,100937.59
2017-11-24T14:46:18.798Z,100942.44
2017-11-24T14:48:44.992Z,100944.27
2017-11-24T14:51:11.223Z,100948.20
2017-11-24T14:53:37.430Z,100952.59
2017-11-24T14:56:03.641Z,100956.97
2017-11-24T14:58:29.926Z,100960.44
2017-11-24T15:00:56.182Z,100968.36
2017-11-24T15:03:22.446Z,100969.27
2017-11-24T15:05:48.853Z,100973.68
2017-11-24T15:08:15.099Z,100972.91
2017-11-24T15:10:41.357Z,100972.91
2017-11-24T15:13:07.843Z,100972.95
2017-11-24T15:15:34.139Z,100970.35
2017-11-24T15:18:00.336Z,100971.77
2017-11-24T15:20:26.604Z,100974.87
2017-11-24T15:22:52.810Z,100982.72
2017-11-24T15:25:19.027Z,100985.41
2017-11-24T15:27:45.379Z,100991.14
2017-11-24T15:30:11.588Z,100992.42
2017-11-24T15:32:37.789Z,100991.54
2017-11-24T15:35:04.139Z,100992.02
2017-11-24T15:37:30.332Z,100993.73
2017-11-24T15:39:56.531Z,100995.52
2017-11-24T15:42:22.814Z,100998.17
2017-11-24T15:44:49.004Z,101002.59
2017-11-24T15:47:15.226Z,101004.81
2017-11-24T15:49:41.813Z,100995.55
2017-11-24T15:52:08.015Z,100998.65
2017-11-24T15:54:34.203Z,101003.03
2017-11-24T15:57:00.486Z,101000.91
2017-11-24T15:59:26.919Z,101003.53
2017-11-24T16:01:53.145Z,101003.13
2017-11-24T16:04:19.694Z,101007.10
2017-11-24T16:06:45.880Z,101007.10
2017-11-24T16:09:12.086Z,101009.36
2017-11-24T16:11:38.357Z,101016.36
2017-11-24T16:14:04.822Z,101023.33
2017-11-24T16:16:31.042Z,101022.02
2017-11-24T16:18:57.316Z,101026.06
2017-11-24T16:21:23.562Z,101023.43
2017-11-24T16:23:49.770Z,101023.47
2017-11-24T16:26:16.146Z,101029.56
2017-11-24T16:28:42.351Z,101033.09
2017-11-24T16:31:08.806Z,101039.22
2017-11-24T16:33:35.186Z,101031.38
2017-11-24T16:36:01.389Z,101034.84
2017-11-24T16:38:27.582Z,101035.25
2017-11-24T16:40:53.919Z,101033.16
2017-11-24T16:43:20.364Z,101033.13
2017-11-24T16:45:47.024Z,101026.63
2017-11-24T16:48:13.508Z,101030.63
2017-11-24T16:50:39.810Z,101025.38
2017-11-24T16:53:06.116Z,101031.94
2017-11-24T16:55:32.449Z,101035.03
2017-11-24T16:57:58.671Z,101033.69
2017-11-24T17:00:24.898Z,101045.51
2017-11-24T17:02:51.221Z,101038.09
2017-11-24T17:05:17.472Z,101041.14
2017-11-24T17:07:43.932Z,101043.32
2017-11-24T17:10:10.275Z,101043.80
2017-11-24T17:12:36.478Z,101045.08
2017-11-24T17:15:02.690Z,101045.58
2017-11-24T17:17:29.181Z,101056.92
2017-11-24T17:19:55.416Z,101056.89
2017-11-24T17:22:21.610Z,101055.98
2017-11-24T17:24:48.113Z,101053.83
2017-11-24T17:27:14.546Z,101052.52
2017-11-24T17:29:40.762Z,101052.55
2017-11-24T17:32:07.297Z,101055.20
2017-11-24T17:34:33.489Z,101053.45
2017-11-24T17:36:59.687Z,101054.80
2017-11-24T17:39:26.044Z,101054.80
2017-11-24T17:41:52.492Z,101058.27
2017-11-24T17:44:18.719Z,101059.58
2017-11-24T17:46:44.954Z,101061.70
2017-11-24T17:49:11.148Z,101060.86
2017-11-24T17:51:37.644Z,101057.02
2017-11-24T17:54:04.018Z,101056.58
2017-11-24T17:56:30.250Z,101057.89
2017-11-24T17:58:56.469Z,101065.84
2017-11-24T18:01:22.821Z,101067.96
2017-11-24T18:03:49.022Z,101064.52
2017-11-24T18:06:15.253Z,101073.25
2017-11-24T18:08:41.583Z,101076.72
2017-11-24T18:11:07.791Z,101079.37
2017-11-24T18:13:33.995Z,101086.41
2017-11-24T18:16:00.312Z,101091.66
2017-11-24T18:18:26.551Z,101092.59
2017-11-24T18:20:52.810Z,101092.09
2017-11-24T18:23:19.204Z,101091.19
2017-11-24T18:25:45.440Z,101092.16
2017-11-24T18:28:11.976Z,101090.90
2017-11-24T18:30:38.352Z,101093.47
2017-11-24T18:33:04.556Z,101087.37
2017-11-24T18:35:30.779Z,101098.28
2017-11-24T18:37:57.371Z,101101.31
2017-11-24T18:40:23.666Z,101102.66
2017-11-24T18:42:49.871Z,101110.12
2017-11-24T18:45:16.494Z,101105.44
2017-11-24T18:47:42.736Z,101111.53
2017-11-24T18:50:09.023Z,101111.50
2017-11-24T18:52:35.311Z,101114.21
2017-11-24T18:55:01.765Z,101121.59
2017-11-24T18:57:27.961Z,101124.19
2017-11-24T18:59:54.292Z,101122.53
2017-11-24T19:02:20.502Z,101127.75
2017-11-24T19:04:47.039Z,101131.25
2017-11-24T19:07:13.376Z,101136.04
2017-11-24T19:09:39.647Z,101132.94
2017-11-24T19:12:05.849Z,101133.79
2017-11-24T19:14:32.083Z,101139.05
2017-11-24T19:16:58.305Z,101139.54
2017-11-24T19:19:24.520Z,101136.44
2017-11-24T19:21:50.842Z,101136.51
2017-11-24T19:24:17.045Z,101132.98
2017-11-24T19:26:43.270Z,101134.31
2017-11-24T19:29:09.522Z,101136.86
2017-11-24T19:31:35.730Z,101136.51
2017-11-24T19:34:01.996Z,101131.28
2017-11-24T19:36:28.310Z,101135.72
2017-11-24T19:38:54.783Z,101138.69
2017-11-24T19:41:20.989Z,101143.91
2017-11-24T19:43:47.259Z,101146.59
2017-11-24T19:46:13.473Z,101139.13
2017-11-24T19:48:39.681Z,101146.10
2017-11-24T19:51:06.170Z,101143.91
2017-11-24T19:53:32.738Z,101146.16
2017-11-24T19:55:58.946Z,101147.00
2017-11-24T19:58:25.186Z,101140.91
2017-11-24T20:00:51.438Z,101146.16
2017-11-24T20:03:17.632Z,101143.48
2017-11-24T20:05:43.902Z,101135.66
2017-11-24T20:08:10.142Z,101139.19
2017-11-24T20:10:36.394Z,101130.05
2017-11-24T20:13:02.686Z,101134.02
2017-11-24T20:15:28.881Z,101132.30
2017-11-24T20:17:55.090Z,101130.02
2017-11-24T20:20:21.314Z,101133.52
2017-11-24T20:22:47.502Z,101129.13
2017-11-24T20:25:13.773Z,101136.13
2017-11-24T20:27:39.984Z,101133.55
2017-11-24T20:30:06.413Z,101135.25
2017-11-24T20:32:32.749Z,101136.47
2017-11-24T20:34:58.965Z,101142.20
2017-11-24T20:37:25.417Z,101145.25
2017-11-24T20:39:51.676Z,101150.20
2017-11-24T20:42:17.881Z,101148.92
2017-11-24T20:44:44.104Z,101143.70
2017-11-24T20:47:10.429Z,101151.12
2017-11-24T20:49:36.858Z,101150.65
2017-11-24T20:52:03.067Z,101165.59
2017-11-24T20:54:29.330Z,101161.59
2017-11-24T20:56:55.538Z,101154.61
2017-11-24T20:59:21.747Z,101151.55
2017-11-24T21:01:47.993Z,101149.39
2017-11-24T21:04:14.234Z,101151.96
2017-11-24T21:06:40.455Z,101145.48
2017-11-24T21:09:06.934Z,101139.38
2017-11-24T21:11:33.407Z,101148.11
2017-11-24T21:13:59.609Z,101150.73
2017-11-24T21:16:25.889Z,101148.90
2017-11-24T21:18:52.147Z,101149.83
2017-11-24T21:21:18.471Z,101147.23
2017-11-24T21:23:44.748Z,101149.48
2017-11-24T21:26:11.012Z,101152.97
2017-11-24T21:28:37.283Z,101155.95
2017-11-24T21:31:03.616Z,101154.64
2017-11-24T21:33:29.818Z,101147.64
2017-11-24T21:35:56.020Z,101143.70
2017-11-24T21:38:22.276Z,101147.20
2017-11-24T21:40:48.570Z,101147.20
2017-11-24T21:43:14.785Z,101143.30
2017-11-24T21:45:41.375Z,101136.30
2017-11-24T21:48:07.597Z,101133.17
2017-11-24T21:50:33.800Z,101133.99
2017-11-24T21:53:00.061Z,101128.74
2017-11-24T21:55:26.310Z,101129.23
2017-11-24T21:57:52.534Z,101127.98
2017-11-24T22:00:18.797Z,101129.67
2017-11-24T22:02:44.998Z,101127.45
2017-11-24T22:05:11.224Z,101125.77
2017-11-24T22:07:37.751Z,101129.70
2017-11-24T22:10:03.971Z,101136.23
2017-11-24T22:12:30.410Z,101141.89
2017-11-24T22:14:56.912Z,101141.05
2017-11-24T22:17:23.127Z,101144.09
2017-11-24T22:19:49.331Z,101140.59
2017-11-24T22:22:15.820Z,101140.61
2017-11-24T22:24:42.049Z,101138.92
2017-11-24T22:27:08.246Z,101136.23
2017-11-24T22:29:34.616Z,101134.95
2017-11-24T22:32:00.861Z,101138.89
2017-11-24T22:34:27.194Z,101139.73
2017-11-24T22:36:53.495Z,101137.17
2017-11-24T22:39:19.726Z,101142.86
2017-11-24T22:41:45.929Z,101139.36
2017-11-24T22:44:12.559Z,101138.42
2017-11-24T22:46:39.003Z,101136.27
2017-11-24T22:49:05.226Z,101135.39
2017-11-24T22:51:31.816Z,101132.80
2017-11-24T22:53:58.029Z,101136.35
2017-11-24T22:56:24.237Z,101146.88
2017-11-24T22:58:50.534Z,101152.16
2017-11-24T23:01:16.744Z,101153.50
2017-11-24T23:03:43.002Z,101148.63
2017-11-24T23:06:09.264Z,101155.55
2017-11-24T23:08:35.482Z,101148.25
2017-11-24T23:11:01.781Z,101146.50
2017-11-24T23:13:28.267Z,101136.41
2017-11-24T23:15:54.710Z,101146.44
2017-11-24T23:18:20.899Z,101148.11
2017-11-24T23:20:47.404Z,101156.89
2017-11-24T23:23:13.624Z,101163.86
2017-11-24T23:25:39.847Z,101170.39
2017-11-24T23:28:06.144Z,101165.59
2017-11-24T23:30:32.368Z,101165.14
2017-11-24T23:32:58.793Z,101158.58
2017-11-24T23:35:25.060Z,101163.80
2017-11-24T23:37:51.270Z,101161.62
2017-11-24T23:40:17.472Z,101166.02
2017-11-24T23:42:43.765Z,101162.96
2017-11-24T23:45:09.973Z,101162.03
2017-11-24T23:47:36.175Z,101156.34
2017-11-24T23:50:02.521Z,101155.11
2017-11-24T23:52:28.743Z,101156.42
2017-11-24T23:54:54.959Z,101155.95
2017-11-24T23:57:21.216Z,101158.61
2017-11-24T23:59:47.418Z,101161.20
